Time;durP1;ratioP1;P1;durP2;ratioP2;P2;SDS_P1;SDS_P2;PMS_P1;PMS_P2;Temp;Humidity;BMP_temperature;BMP_pressure;BME280_temperature;BME280_humidity;BME280_pressure;Samples;Min_cycle;Max_cycle;Signal;HPM_P1;HPM_P2
2023/03/29 00:00:20;;;;;;;4.10;2.05;;;;;;;4.84;nan;101940.97;4982553;28;20033;-51
2023/03/29 00:02:47;;;;;;;5.93;2.38;;;;;;;4.84;nan;101928.78;4986180;28;20038;-49
2023/03/29 00:05:18;;;;;;;5.03;2.63;;;;;;;4.86;nan;101920.91;4985827;28;20042;-51
2023/03/29 00:07:44;;;;;;;5.68;2.47;;;;;;;4.87;nan;101920.03;4992618;28;20040;-49
2023/03/29 00:10:11;;;;;;;7.85;2.40;;;;;;;4.88;nan;101920.03;4988796;28;21875;-51
2023/03/29 00:12:39;;;;;;;6.25;2.03;;;;;;;4.88;nan;101914.81;4995783;28;20046;-50
2023/03/29 00:15:06;;;;;;;3.90;1.83;;;;;;;4.86;nan;101913.97;4992648;28;20060;-50
2023/03/29 00:17:32;;;;;;;3.90;1.77;;;;;;;4.88;nan;101914.81;4990688;28;20052;-49
2023/03/29 00:19:57;;;;;;;5.95;2.05;;;;;;;4.86;nan;101913.97;4991265;28;20419;-50
2023/03/29 00:22:23;;;;;;;6.07;3.05;;;;;;;4.86;nan;101903.53;4998093;28;20034;-49
2023/03/29 00:24:53;;;;;;;4.78;2.15;;;;;;;4.82;nan;101899.25;4995070;28;20420;-51
2023/03/29 00:27:21;;;;;;;9.52;2.50;;;;;;;4.78;nan;101894.94;5006424;28;20041;-49
2023/03/29 00:29:47;;;;;;;5.57;2.65;;;;;;;4.79;nan;101891.47;4997718;28;20048;-49
2023/03/29 00:32:14;;;;;;;5.50;2.50;;;;;;;4.82;nan;101890.56;5002069;28;20034;-50
2023/03/29 00:34:41;;;;;;;5.50;2.33;;;;;;;4.76;nan;101888.94;5000968;28;20046;-49
2023/03/29 00:37:08;;;;;;;7.82;3.10;;;;;;;4.77;nan;101890.63;5003928;28;20026;-49
2023/03/29 00:39:35;;;;;;;6.28;2.55;;;;;;;4.77;nan;101888.00;4997881;28;20045;-48
2023/03/29 00:42:01;;;;;;;4.18;2.15;;;;;;;4.80;nan;101887.13;5003320;28;20044;-49
2023/03/29 00:44:55;;;;;;;5.40;2.10;;;;;;;4.77;nan;101887.16;4997831;28;20492;-49
2023/03/29 00:47:45;;;;;;;5.57;2.47;;;;;;;4.74;nan;101885.47;4995024;28;20030;-50
2023/03/29 00:50:35;;;;;;;8.85;2.60;;;;;;;4.72;nan;101882.88;4996073;28;20713;-50
2023/03/29 00:53:21;;;;;;;6.05;2.40;;;;;;;4.69;nan;101885.50;4992657;28;20890;-51
2023/03/29 00:55:56;;;;;;;7.05;2.05;;;;;;;4.62;nan;101877.81;4990799;28;20039;-51
2023/03/29 00:58:27;;;;;;;5.78;2.65;;;;;;;4.60;nan;101877.00;4988204;28;20034;-50
2023/03/29 01:01:00;;;;;;;5.13;2.35;;;;;;;4.57;nan;101876.16;4994349;28;20498;-49
2023/03/29 01:03:32;;;;;;;7.10;2.75;;;;;;;4.57;nan;101870.94;4995078;28;22099;-48
2023/03/29 01:06:03;;;;;;;5.50;2.63;;;;;;;4.55;nan;101862.28;4991468;28;20033;-51
2023/03/29 01:08:34;;;;;;;4.38;2.10;;;;;;;4.56;nan;101857.91;4996534;28;20566;-48
2023/03/29 01:11:38;;;;;;;6.50;2.83;;;;;;;4.56;nan;101848.34;4986525;28;20099;-51
2023/03/29 01:14:09;;;;;;;10.00;2.65;;;;;;;4.55;nan;101846.63;4986367;28;20046;-52
2023/03/29 01:16:38;;;;;;;6.68;2.55;;;;;;;4.50;nan;101844.97;5002556;28;20026;-50
2023/03/29 01:19:07;;;;;;;2.78;1.33;;;;;;;4.42;nan;101842.47;4999206;28;20069;-51
2023/03/29 01:21:43;;;;;;;6.57;2.15;;;;;;;4.40;nan;101833.81;4989625;28;20026;-50
2023/03/29 01:24:50;;;;;;;4.03;2.30;;;;;;;4.45;nan;101833.75;4994725;28;20030;-50
2023/03/29 01:27:46;;;;;;;5.05;2.28;;;;;;;4.43;nan;101826.81;4995110;28;20043;-51
2023/03/29 01:30:17;;;;;;;6.75;2.28;;;;;;;4.43;nan;101832.03;4992924;28;20176;-48
2023/03/29 01:32:58;;;;;;;4.43;2.08;;;;;;;4.39;nan;101830.34;4994672;28;20088;-50
2023/03/29 01:35:31;;;;;;;7.25;2.75;;;;;;;4.43;nan;101828.56;4997629;28;20512;-49
2023/03/29 01:38:14;;;;;;;8.65;2.85;;;;;;;4.43;nan;101826.81;4998156;28;20034;-49
2023/03/29 01:40:40;;;;;;;5.85;2.75;;;;;;;4.45;nan;101829.41;4993432;28;20030;-50
2023/03/29 01:43:22;;;;;;;12.25;4.97;;;;;;;4.46;nan;101819.84;4994628;28;20044;-51
2023/03/29 01:46:00;;;;;;;6.55;2.53;;;;;;;4.40;nan;101815.56;4994251;28;20036;-48
2023/03/29 01:48:26;;;;;;;7.82;2.70;;;;;;;4.41;nan;101809.47;4992423;28;20548;-50
2023/03/29 01:51:11;;;;;;;6.38;2.28;;;;;;;4.43;nan;101799.91;4988480;28;20111;-50
2023/03/29 01:53:45;;;;;;;8.05;2.70;;;;;;;4.42;nan;101792.97;4990039;28;20049;-49
2023/03/29 01:56:18;;;;;;;5.35;2.50;;;;;;;4.42;nan;101786.00;4995250;28;20104;-49
2023/03/29 01:58:47;;;;;;;6.93;2.90;;;;;;;4.42;nan;101775.56;4988210;28;20021;-49
2023/03/29 02:01:18;;;;;;;4.82;2.20;;;;;;;4.38;nan;101771.31;4995840;28;20029;-49
2023/03/29 02:03:49;;;;;;;8.40;3.28;;;;;;;4.37;nan;101774.78;4994873;28;20030;-48
2023/03/29 02:06:22;;;;;;;5.85;2.65;;;;;;;4.41;nan;101770.38;4996276;28;20028;-49
2023/03/29 02:08:50;;;;;;;5.03;2.20;;;;;;;4.43;nan;101764.25;4995823;28;20035;-53
2023/03/29 02:11:16;;;;;;;11.73;3.08;;;;;;;4.45;nan;101761.66;4993135;28;20029;-50
2023/03/29 02:13:41;;;;;;;5.25;2.75;;;;;;;4.45;nan;101756.44;4992629;28;20124;-48
2023/03/29 02:16:11;;;;;;;6.38;2.47;;;;;;;4.50;nan;101758.97;4992050;28;20517;-50
2023/03/29 02:18:43;;;;;;;6.85;2.63;;;;;;;4.52;nan;101747.63;4995421;28;20018;-50
2023/03/29 02:21:15;;;;;;;5.10;2.70;;;;;;;4.53;nan;101756.31;4999847;28;20037;-53
2023/03/29 02:23:45;;;;;;;6.97;2.60;;;;;;;4.56;nan;101754.50;4995132;28;20050;-49
2023/03/29 02:26:13;;;;;;;8.25;2.85;;;;;;;4.57;nan;101751.03;5005072;28;20034;-50
2023/03/29 02:28:39;;;;;;;7.85;2.80;;;;;;;4.56;nan;101743.22;4999166;28;20057;-49
2023/03/29 02:31:14;;;;;;;7.28;3.08;;;;;;;4.51;nan;101750.25;5002074;28;20025;-51
2023/03/29 02:34:04;;;;;;;6.75;2.63;;;;;;;4.48;nan;101743.34;5001012;28;20554;-48
2023/03/29 02:36:41;;;;;;;7.35;2.72;;;;;;;4.44;nan;101739.06;5007697;28;20480;-48
2023/03/29 02:39:12;;;;;;;7.25;2.70;;;;;;;4.43;nan;101740.81;5001288;28;20621;-48
2023/03/29 02:41:39;;;;;;;7.68;2.78;;;;;;;4.41;nan;101736.50;5005779;28;20036;-49
2023/03/29 02:44:08;;;;;;;6.35;2.42;;;;;;;4.44;nan;101739.06;5001275;28;20497;-49
2023/03/29 02:46:36;;;;;;;5.78;2.63;;;;;;;4.45;nan;101730.38;4992849;28;20062;-48
2023/03/29 02:49:04;;;;;;;10.75;2.90;;;;;;;4.43;nan;101726.94;4994358;28;20042;-49
2023/03/29 02:51:33;;;;;;;6.72;2.97;;;;;;;4.48;nan;101725.09;4996345;28;20116;-49
2023/03/29 02:54:12;;;;;;;6.65;2.72;;;;;;;4.47;nan;101725.13;4988163;28;20044;-47
2023/03/29 02:56:48;;;;;;;7.20;2.80;;;;;;;4.48;nan;101719.03;4992227;28;20066;-50
2023/03/29 02:59:16;;;;;;;6.55;2.80;;;;;;;4.48;nan;101725.09;4991721;28;20050;-49
2023/03/29 03:01:42;;;;;;;7.07;2.83;;;;;;;4.45;nan;101716.47;4992028;28;20396;-49
2023/03/29 03:04:11;;;;;;;5.82;2.90;;;;;;;4.42;nan;101715.63;4991443;28;20095;-49
2023/03/29 03:06:37;;;;;;;9.43;3.45;;;;;;;4.41;nan;101720.88;4993598;28;20026;-49
2023/03/29 03:09:06;;;;;;;10.05;3.78;;;;;;;4.43;nan;101719.09;4997560;28;20033;-49
2023/03/29 03:11:32;;;;;;;8.57;3.40;;;;;;;4.43;nan;101716.50;4992875;28;20026;-50
2023/03/29 03:13:58;;;;;;;7.38;2.70;;;;;;;4.40;nan;101709.56;4992142;28;20034;-48
2023/03/29 03:16:24;;;;;;;4.53;2.10;;;;;;;4.38;nan;101707.88;4992690;28;20033;-49
2023/03/29 03:18:50;;;;;;;6.05;2.47;;;;;;;4.31;nan;101711.50;4995591;28;20045;-51
2023/03/29 03:21:18;;;;;;;4.85;2.17;;;;;;;4.31;nan;101703.69;4994406;28;20419;-49
2023/03/29 03:23:48;;;;;;;6.13;3.30;;;;;;;4.34;nan;101701.00;4992477;28;20100;-49
2023/03/29 03:26:15;;;;;;;12.25;3.10;;;;;;;4.38;nan;101702.69;4996377;28;20041;-49
2023/03/29 03:28:40;;;;;;;7.00;3.08;;;;;;;4.37;nan;101707.03;4990867;28;20408;-48
2023/03/29 03:31:07;;;;;;;8.60;3.00;;;;;;;4.36;nan;101694.91;4989599;28;20030;-48
2023/03/29 03:33:32;;;;;;;10.48;3.42;;;;;;;4.38;nan;101705.28;4985651;28;20117;-49
2023/03/29 03:36:04;;;;;;;5.75;2.63;;;;;;;4.32;nan;101703.63;4989926;28;20164;-50
2023/03/29 03:38:29;;;;;;;6.15;3.05;;;;;;;4.24;nan;101695.94;4994826;28;20108;-50
2023/03/29 03:40:56;;;;;;;7.28;2.88;;;;;;;4.26;nan;101695.91;4995344;28;20470;-51
2023/03/29 03:43:22;;;;;;;7.30;2.45;;;;;;;4.32;nan;101697.56;4994571;28;20044;-49
2023/03/29 03:45:47;;;;;;;6.30;2.90;;;;;;;4.36;nan;101699.22;4993741;28;20026;-48
2023/03/29 03:48:13;;;;;;;10.25;4.40;;;;;;;4.37;nan;101685.31;4999335;28;20029;-52
2023/03/29 03:50:39;;;;;;;19.75;8.82;;;;;;;4.34;nan;101686.25;4992608;28;20554;-50
2023/03/29 03:53:05;;;;;;;17.02;6.55;;;;;;;4.34;nan;101685.38;4994147;28;20199;-49
2023/03/29 03:55:32;;;;;;;8.10;4.63;;;;;;;4.33;nan;101683.63;4994908;28;20053;-51
2023/03/29 03:57:57;;;;;;;9.77;3.63;;;;;;;4.33;nan;101679.31;4993995;28;20025;-51
2023/03/29 04:00:23;;;;;;;7.78;2.92;;;;;;;4.36;nan;101675.78;4992585;28;20049;-51
2023/03/29 04:02:49;;;;;;;6.88;3.72;;;;;;;4.36;nan;101673.16;4989819;28;20080;-49
2023/03/29 04:05:16;;;;;;;6.05;3.72;;;;;;;4.39;nan;101670.53;4991433;28;20038;-50
2023/03/29 04:07:42;;;;;;;4.75;3.03;;;;;;;4.42;nan;101673.94;4995525;28;20022;-48
2023/03/29 04:10:08;;;;;;;9.00;3.65;;;;;;;4.44;nan;101666.09;4994245;28;20037;-51
2023/03/29 04:12:34;;;;;;;9.93;2.80;;;;;;;4.42;nan;101667.88;4993538;28;20044;-52
2023/03/29 04:15:00;;;;;;;6.45;4.28;;;;;;;4.42;nan;101678.28;4990838;28;20084;-49
2023/03/29 04:17:26;;;;;;;9.98;2.97;;;;;;;4.42;nan;101678.28;4993420;28;20026;-49
2023/03/29 04:19:52;;;;;;;5.32;3.08;;;;;;;4.44;nan;101668.72;5001522;28;20045;-49
2023/03/29 04:22:17;;;;;;;5.25;2.33;;;;;;;4.46;nan;101666.94;4994516;28;20464;-49
2023/03/29 04:24:43;;;;;;;12.38;3.70;;;;;;;4.48;nan;101667.75;5000495;28;20030;-49
2023/03/29 04:27:08;;;;;;;13.63;3.00;;;;;;;4.47;nan;101666.03;4999525;28;20030;-49
2023/03/29 04:29:33;;;;;;;5.50;2.83;;;;;;;4.48;nan;101667.75;5003404;28;20915;-48
2023/03/29 04:31:59;;;;;;;4.60;2.85;;;;;;;4.54;nan;101658.94;4997284;28;20125;-48
2023/03/29 04:34:25;;;;;;;6.53;3.00;;;;;;;4.53;nan;101665.94;4997064;28;20096;-48
2023/03/29 04:36:50;;;;;;;10.85;3.55;;;;;;;4.54;nan;101665.03;4998428;28;20033;-49
2023/03/29 04:39:18;;;;;;;8.98;3.35;;;;;;;4.54;nan;101656.34;4996058;28;20412;-50
2023/03/29 04:41:44;;;;;;;6.72;3.10;;;;;;;4.51;nan;101657.28;4992744;28;20044;-49
2023/03/29 04:44:10;;;;;;;15.75;7.18;;;;;;;4.52;nan;101659.00;4997296;28;20041;-51
2023/03/29 04:46:37;;;;;;;42.93;18.10;;;;;;;4.55;nan;101648.53;4995567;28;20377;-49
2023/03/29 04:49:04;;;;;;;18.80;8.13;;;;;;;4.56;nan;101655.44;4998131;28;20038;-50
2023/03/29 04:51:30;;;;;;;15.68;5.28;;;;;;;4.54;nan;101652.00;4993316;28;20038;-49
2023/03/29 04:53:56;;;;;;;7.55;3.17;;;;;;;4.54;nan;101657.22;4988592;28;20037;-49
2023/03/29 04:56:22;;;;;;;5.85;2.97;;;;;;;4.55;nan;101658.06;4996042;28;20030;-50
2023/03/29 04:58:48;;;;;;;10.82;3.65;;;;;;;4.53;nan;101639.88;4990409;28;20037;-50
2023/03/29 05:01:13;;;;;;;7.32;3.95;;;;;;;4.57;nan;101640.66;5001785;28;20504;-52
2023/03/29 05:03:39;;;;;;;10.45;4.22;;;;;;;4.55;nan;101638.09;4982361;28;20052;-50
2023/03/29 05:06:07;;;;;;;12.10;4.22;;;;;;;4.56;nan;101639.81;4986955;28;20041;-51
2023/03/29 05:08:37;;;;;;;16.83;5.30;;;;;;;4.56;nan;101628.50;4982730;28;20058;-49
2023/03/29 05:11:03;;;;;;;18.50;10.15;;;;;;;4.55;nan;101627.66;4990517;28;20029;-51
2023/03/29 05:13:28;;;;;;;70.03;30.67;;;;;;;4.59;nan;101620.63;4995504;28;20034;-49
2023/03/29 05:15:55;;;;;;;28.65;10.05;;;;;;;4.55;nan;101619.84;4992121;28;20038;-49
2023/03/29 05:18:21;;;;;;;9.68;3.90;;;;;;;4.53;nan;101624.22;5003436;28;20022;-48
2023/03/29 05:20:46;;;;;;;7.78;3.63;;;;;;;4.49;nan;101617.34;5000735;28;20061;-50
2023/03/29 05:23:12;;;;;;;8.43;4.15;;;;;;;4.49;nan;101619.09;4994625;28;20045;-49
2023/03/29 05:25:37;;;;;;;8.90;3.63;;;;;;;4.49;nan;101609.53;4991192;28;20096;-48
2023/03/29 05:28:03;;;;;;;7.30;3.88;;;;;;;4.53;nan;101608.59;4990560;28;20042;-49
2023/03/29 05:30:28;;;;;;;15.48;3.80;;;;;;;4.53;nan;101608.59;4996813;28;20046;-49
2023/03/29 05:32:54;;;;;;;9.20;3.60;;;;;;;4.54;nan;101606.81;4995029;28;20049;-50
2023/03/29 05:35:19;;;;;;;11.23;3.70;;;;;;;4.56;nan;101608.53;4997339;28;20084;-49
2023/03/29 05:37:46;;;;;;;36.90;15.82;;;;;;;4.58;nan;101605.88;4998217;28;20022;-49
2023/03/29 05:40:12;;;;;;;16.33;6.80;;;;;;;4.54;nan;101605.09;4998088;28;20033;-49
2023/03/29 05:42:37;;;;;;;12.38;3.92;;;;;;;4.53;nan;101600.75;4994264;28;20080;-49
2023/03/29 05:45:04;;;;;;;14.68;4.82;;;;;;;4.57;nan;101599.81;4995673;28;20746;-50
2023/03/29 05:47:29;;;;;;;13.82;5.88;;;;;;;4.61;nan;101602.38;5010118;28;20056;-49
2023/03/29 05:49:56;;;;;;;9.02;4.45;;;;;;;4.65;nan;101601.41;5003583;28;20121;-49
2023/03/29 05:52:22;;;;;;;16.15;7.38;;;;;;;4.72;nan;101603.03;5006615;28;20044;-52
2023/03/29 05:54:48;;;;;;;10.15;4.95;;;;;;;4.78;nan;101602.88;5001407;28;20061;-48
2023/03/29 05:57:14;;;;;;;13.50;4.40;;;;;;;4.83;nan;101595.84;5006365;28;20085;-49
2023/03/29 05:59:39;;;;;;;16.63;3.80;;;;;;;4.83;nan;101595.84;5006345;28;20916;-49
2023/03/29 06:02:04;;;;;;;8.13;3.28;;;;;;;4.86;nan;101601.00;4996663;28;20030;-50
2023/03/29 06:04:32;;;;;;;9.85;2.95;;;;;;;4.90;nan;101595.72;5005621;28;20060;-49
2023/03/29 06:06:59;;;;;;;20.88;5.28;;;;;;;4.96;nan;101603.41;5003811;28;20030;-48
2023/03/29 06:09:24;;;;;;;6.55;3.05;;;;;;;5.04;nan;101601.53;5002170;28;20399;-49
2023/03/29 06:11:50;;;;;;;8.07;2.90;;;;;;;5.11;nan;101597.03;4999351;28;20029;-48
2023/03/29 06:14:15;;;;;;;6.03;2.50;;;;;;;5.14;nan;101595.22;5002877;28;20034;-49
2023/03/29 06:16:42;;;;;;;13.98;3.38;;;;;;;5.17;nan;101600.38;5002862;28;20041;-48
2023/03/29 06:19:07;;;;;;;10.38;3.33;;;;;;;5.24;nan;101597.63;4989106;28;20034;-50
2023/03/29 06:21:32;;;;;;;8.38;3.05;;;;;;;5.32;nan;101598.31;5001517;28;20060;-49
2023/03/29 06:23:58;;;;;;;7.97;3.65;;;;;;;5.43;nan;101590.25;5000102;28;20396;-49
2023/03/29 06:26:26;;;;;;;11.80;3.92;;;;;;;5.48;nan;101597.09;5006746;28;20373;-50
2023/03/29 06:28:52;;;;;;;9.75;3.72;;;;;;;5.57;nan;101587.31;5008844;28;20036;-49
2023/03/29 06:31:18;;;;;;;9.68;3.00;;;;;;;5.67;nan;101586.22;5002713;28;20041;-47
2023/03/29 06:33:44;;;;;;;7.07;3.25;;;;;;;5.74;nan;101582.56;4997245;28;20044;-47
2023/03/29 06:36:10;;;;;;;14.80;3.17;;;;;;;5.80;nan;101584.16;5007180;28;20567;-47
2023/03/29 06:38:36;;;;;;;14.43;3.88;;;;;;;5.86;nan;101583.16;5008853;28;20030;-46
2023/03/29 06:41:04;;;;;;;11.20;3.80;;;;;;;5.92;nan;101573.41;4998606;28;20446;-48
2023/03/29 06:43:31;;;;;;;9.60;3.42;;;;;;;6.00;nan;101578.47;5000583;28;20812;-47
2023/03/29 06:45:57;;;;;;;13.32;3.30;;;;;;;6.06;nan;101575.72;5004820;28;20480;-46
2023/03/29 06:48:23;;;;;;;5.97;2.58;;;;;;;6.18;nan;101578.91;4997073;28;20125;-45
2023/03/29 06:50:49;;;;;;;10.52;3.38;;;;;;;6.28;nan;101569.91;5006475;28;20088;-45
2023/03/29 06:53:14;;;;;;;6.53;3.10;;;;;;;6.33;nan;101573.28;4996366;28;20402;-48
2023/03/29 06:55:40;;;;;;;13.23;3.08;;;;;;;6.37;nan;101572.31;5002446;28;20061;-48
2023/03/29 06:58:08;;;;;;;15.65;4.10;;;;;;;6.44;nan;101574.72;5003670;28;20092;-49
2023/03/29 07:00:36;;;;;;;8.88;2.28;;;;;;;6.50;nan;101575.44;5001166;28;20045;-47
2023/03/29 07:03:08;;;;;;;5.45;1.90;;;;;;;6.51;nan;101568.44;5001459;28;20030;-49
2023/03/29 07:05:35;;;;;;;10.23;2.35;;;;;;;6.59;nan;101570.84;5009445;28;20025;-45
2023/03/29 07:10:36;;;;;;;11.75;2.55;;;;;;;6.65;nan;101568.94;5001213;28;20033;-48
2023/03/29 07:13:04;;;;;;;10.38;3.33;;;;;;;6.73;nan;101570.47;4997731;28;20116;-49
2023/03/29 07:15:31;;;;;;;8.90;2.85;;;;;;;6.77;nan;101564.25;4993333;28;20034;-46
2023/03/29 07:17:56;;;;;;;11.00;2.90;;;;;;;6.85;nan;101559.66;5001899;28;20088;-46
2023/03/29 07:20:22;;;;;;;7.00;2.58;;;;;;;6.93;nan;101569.91;4988273;28;20058;-48
2023/03/29 07:22:50;;;;;;;8.35;3.05;;;;;;;6.97;nan;101564.53;4999909;28;20523;-50
2023/03/29 07:25:17;;;;;;;7.28;2.78;;;;;;;7.03;nan;101563.50;4995431;28;20100;-49
2023/03/29 07:27:44;;;;;;;8.43;3.22;;;;;;;7.10;nan;101565.03;4993182;28;20026;-49
2023/03/29 07:30:12;;;;;;;8.18;2.67;;;;;;;7.15;nan;101567.50;4999543;28;20503;-48
2023/03/29 07:32:40;;;;;;;5.60;4.00;;;;;;;7.18;nan;101559.56;5001077;28;20123;-47
2023/03/29 07:35:07;;;;;;;8.98;3.35;;;;;;;7.25;nan;101563.69;5005511;28;20030;-49
2023/03/29 07:37:35;;;;;;;6.40;2.50;;;;;;;7.30;nan;101559.19;5005655;28;20535;-47
2023/03/29 07:40:08;;;;;;;8.02;3.30;;;;;;;7.36;nan;101563.38;5009251;28;20034;-47
2023/03/29 07:42:36;;;;;;;7.50;2.83;;;;;;;7.42;nan;101560.53;5001470;28;20022;-48
2023/03/29 07:45:05;;;;;;;13.00;4.15;;;;;;;7.50;nan;101562.91;5001779;28;20152;-48
2023/03/29 07:47:31;;;;;;;6.03;3.03;;;;;;;7.53;nan;101557.59;5002973;28;20069;-50
2023/03/29 07:49:57;;;;;;;7.65;3.20;;;;;;;7.61;nan;101555.59;4996236;28;20070;-48
2023/03/29 07:52:24;;;;;;;10.68;3.05;;;;;;;7.66;nan;101558.06;4998750;28;20037;-47
2023/03/29 07:54:49;;;;;;;5.40;1.63;;;;;;;7.71;nan;101557.91;5005299;28;20069;-47
2023/03/29 07:57:15;;;;;;;8.60;2.28;;;;;;;7.74;nan;101561.28;4999451;28;20030;-48
2023/03/29 07:59:40;;;;;;;7.00;2.63;;;;;;;7.81;nan;101567.16;5000321;28;20046;-48
2023/03/29 08:02:09;;;;;;;9.40;2.88;;;;;;;7.85;nan;101558.31;4996467;28;20054;-47
2023/03/29 08:04:35;;;;;;;9.50;2.47;;;;;;;7.93;nan;101547.56;4995246;28;20073;-47
2023/03/29 08:07:00;;;;;;;11.13;2.88;;;;;;;8.03;nan;101545.50;4999466;28;20512;-47
2023/03/29 08:09:26;;;;;;;6.95;1.90;;;;;;;8.08;nan;101544.44;5001137;28;20428;-48
2023/03/29 08:11:52;;;;;;;8.43;2.97;;;;;;;8.11;nan;101538.22;4999235;28;20029;-48
2023/03/29 08:14:18;;;;;;;9.95;2.63;;;;;;;8.17;nan;101547.63;4997818;28;20029;-48
2023/03/29 08:16:43;;;;;;;5.75;2.40;;;;;;;8.20;nan;101537.91;4994672;28;20066;-47
2023/03/29 08:19:20;;;;;;;8.77;2.30;;;;;;;8.27;nan;101537.69;4998896;28;20391;-49
2023/03/29 08:21:46;;;;;;;5.80;2.53;;;;;;;8.31;nan;101539.28;4995802;28;20080;-48
2023/03/29 08:24:13;;;;;;;13.20;2.70;;;;;;;8.39;nan;101534.66;5003847;28;20041;-48
2023/03/29 08:26:38;;;;;;;8.05;3.00;;;;;;;8.46;nan;101525.63;5004297;28;20117;-48
2023/03/29 08:29:04;;;;;;;7.25;3.47;;;;;;;8.51;nan;101533.34;5006382;28;20109;-47
2023/03/29 08:31:30;;;;;;;9.15;3.58;;;;;;;8.57;nan;101537.53;4987404;28;20041;-47
2023/03/29 08:33:55;;;;;;;4.30;2.22;;;;;;;8.63;nan;101534.69;5003406;28;20034;-48
2023/03/29 08:36:21;;;;;;;9.95;3.33;;;;;;;8.68;nan;101527.50;5009337;28;20400;-46
2023/03/29 08:38:46;;;;;;;4.15;1.30;;;;;;;8.72;nan;101525.63;5004078;28;20068;-49
2023/03/29 08:41:23;;;;;;;10.93;3.50;;;;;;;8.78;nan;101523.63;5000228;28;20382;-47
2023/03/29 08:44:12;;;;;;;10.23;3.20;;;;;;;8.84;nan;101530.41;5002831;28;20545;-48
2023/03/29 08:47:14;;;;;;;8.20;2.53;;;;;;;8.93;nan;101521.31;5005363;28;20411;-47
2023/03/29 08:49:43;;;;;;;5.97;2.40;;;;;;;8.98;nan;101524.63;4990252;28;20512;-48
2023/03/29 08:52:20;;;;;;;7.05;2.97;;;;;;;9.04;nan;101521.75;4992936;28;20038;-48
2023/03/29 08:54:50;;;;;;;8.68;2.50;;;;;;;9.05;nan;101520.84;5000531;28;20026;-47
2023/03/29 08:57:20;;;;;;;10.05;2.70;;;;;;;9.09;nan;101519.81;4999577;28;20121;-46
2023/03/29 08:59:51;;;;;;;12.25;2.45;;;;;;;9.13;nan;101521.41;5005766;28;20092;-47
2023/03/29 09:02:22;;;;;;;8.27;2.85;;;;;;;9.12;nan;101524.97;4997997;28;20029;-46
2023/03/29 09:04:49;;;;;;;6.45;2.70;;;;;;;9.11;nan;101525.00;5001702;28;20559;-47
2023/03/29 09:07:15;;;;;;;9.25;2.75;;;;;;;9.12;nan;101529.34;4998856;28;20043;-46
2023/03/29 09:09:41;;;;;;;10.93;3.55;;;;;;;9.14;nan;101528.38;5002452;28;20037;-48
2023/03/29 09:12:46;;;;;;;8.88;3.15;;;;;;;9.21;nan;101525.50;4996080;28;20030;-47
2023/03/29 09:15:18;;;;;;;10.07;2.55;;;;;;;9.23;nan;101521.88;4997438;28;20038;-47
2023/03/29 09:18:03;;;;;;;7.03;2.53;;;;;;;9.30;nan;101509.38;4993293;28;20022;-47
2023/03/29 09:20:57;;;;;;;8.45;2.47;;;;;;;9.39;nan;101513.38;5001695;28;20025;-48
2023/03/29 09:23:37;;;;;;;14.57;3.45;;;;;;;9.43;nan;101510.59;5001071;28;20034;-48
2023/03/29 09:26:18;;;;;;;6.50;2.60;;;;;;;9.42;nan;101508.03;5001833;28;20045;-45
2023/03/29 09:28:58;;;;;;;10.82;3.17;;;;;;;9.42;nan;101503.63;5000651;28;20034;-47
2023/03/29 09:31:35;;;;;;;7.80;2.85;;;;;;;9.40;nan;101504.59;4995673;28;20070;-47
2023/03/29 09:34:19;;;;;;;8.23;3.05;;;;;;;9.41;nan;101507.19;5007701;28;20550;-49
2023/03/29 09:36:52;;;;;;;6.68;2.40;;;;;;;9.46;nan;101509.63;4995984;28;20166;-47
2023/03/29 09:39:22;;;;;;;13.45;3.70;;;;;;;9.51;nan;101506.78;5004905;28;20058;-46
2023/03/29 09:41:54;;;;;;;9.68;3.22;;;;;;;9.59;nan;101499.47;5004448;28;20501;-48
2023/03/29 09:44:26;;;;;;;5.30;2.83;;;;;;;9.62;nan;101491.44;5008884;28;20491;-48
2023/03/29 09:46:59;;;;;;;14.10;4.30;;;;;;;9.64;nan;101492.22;5004178;28;20042;-48
2023/03/29 09:49:35;;;;;;;7.85;3.00;;;;;;;9.65;nan;101488.69;5011089;28;20026;-46
2023/03/29 09:52:06;;;;;;;10.82;3.47;;;;;;;9.69;nan;101485.00;5001400;28;20026;-48
2023/03/29 09:54:32;;;;;;;7.65;3.13;;;;;;;9.71;nan;101485.81;5009210;28;20030;-48
2023/03/29 09:57:12;;;;;;;11.32;3.40;;;;;;;9.76;nan;101475.94;4994846;28;20037;-49
2023/03/29 09:59:38;;;;;;;4.80;2.78;;;;;;;9.82;nan;101473.97;5002405;28;20138;-50
2023/03/29 10:02:12;;;;;;;8.15;3.05;;;;;;;9.90;nan;101466.63;4995555;28;20056;-47
2023/03/29 10:04:48;;;;;;;9.75;3.35;;;;;;;9.98;nan;101468.94;5010414;28;20472;-48
2023/03/29 10:07:17;;;;;;;8.00;3.28;;;;;;;10.06;nan;101465.00;5004051;28;20042;-49
2023/03/29 10:09:44;;;;;;;5.30;3.00;;;;;;;10.13;nan;101457.72;5006387;28;20131;-49
2023/03/29 10:12:12;;;;;;;9.15;2.58;;;;;;;10.19;nan;101459.22;4996523;28;20037;-50
2023/03/29 10:14:47;;;;;;;7.38;3.47;;;;;;;10.27;nan;101457.09;5008020;28;20025;-49
2023/03/29 10:17:18;;;;;;;18.60;3.08;;;;;;;10.34;nan;101450.66;4996605;28;20034;-47
2023/03/29 10:20:03;;;;;;;6.88;2.88;;;;;;;10.42;nan;101457.34;5003407;28;20523;-48
2023/03/29 10:22:36;;;;;;;7.93;2.72;;;;;;;10.45;nan;101446.69;5000836;28;20057;-48
2023/03/29 10:25:02;;;;;;;13.02;3.55;;;;;;;10.46;nan;101454.50;5008887;28;20121;-46
2023/03/29 10:27:31;;;;;;;8.25;2.88;;;;;;;10.45;nan;101455.44;5004613;28;20046;-48
2023/03/29 10:30:07;;;;;;;5.72;2.60;;;;;;;10.49;nan;101448.28;5002390;28;20022;-48
2023/03/29 10:32:37;;;;;;;8.57;2.85;;;;;;;10.51;nan;101447.25;5004904;28;20040;-47
2023/03/29 10:35:02;;;;;;;10.23;3.05;;;;;;;10.54;nan;101448.88;4998238;28;20117;-47
2023/03/29 10:37:28;;;;;;;6.15;2.67;;;;;;;10.57;nan;101445.28;5000042;28;20104;-48
2023/03/29 10:39:53;;;;;;;6.95;2.70;;;;;;;10.58;nan;101442.56;5005425;28;20524;-49
2023/03/29 10:42:23;;;;;;;8.57;3.03;;;;;;;10.62;nan;101438.88;5000999;28;20408;-49
2023/03/29 10:44:57;;;;;;;9.15;2.72;;;;;;;10.70;nan;101442.91;5005142;28;20519;-50
2023/03/29 10:47:23;;;;;;;9.10;2.90;;;;;;;10.80;nan;101437.16;5001592;28;20068;-51
2023/03/29 10:49:54;;;;;;;6.18;2.60;;;;;;;10.89;nan;101430.59;4999078;28;20034;-49
2023/03/29 10:52:20;;;;;;;4.67;3.00;;;;;;;10.91;nan;101423.47;4995605;28;20029;-48
2023/03/29 10:54:48;;;;;;;6.65;3.05;;;;;;;10.97;nan;101422.31;4997692;28;20335;-49
2023/03/29 10:57:36;;;;;;;5.90;2.45;;;;;;;11.08;nan;101419.16;4993937;28;20048;-49
2023/03/29 11:00:14;;;;;;;13.00;3.50;;;;;;;11.15;nan;101425.81;4988240;28;20033;-52
2023/03/29 11:02:47;;;;;;;9.02;3.03;;;;;;;11.22;nan;101418.47;5002320;28;20711;-50
2023/03/29 11:05:38;;;;;;;6.85;2.72;;;;;;;11.28;nan;101416.38;4990551;28;20034;-49
2023/03/29 11:08:34;;;;;;;7.72;2.70;;;;;;;11.34;nan;101409.97;4987936;28;20555;-49
2023/03/29 11:11:43;;;;;;;8.77;2.90;;;;;;;11.38;nan;101400.13;4987466;28;20037;-48
2023/03/29 11:14:20;;;;;;;11.07;3.95;;;;;;;11.35;nan;101395.84;4956553;28;20065;-50
2023/03/29 11:17:07;;;;;;;7.13;3.13;;;;;;;11.41;nan;101395.56;4937007;28;20030;-50
2023/03/29 11:19:44;;;;;;;7.10;3.15;;;;;;;11.46;nan;101397.94;4983512;28;20042;-50
2023/03/29 11:22:23;;;;;;;7.32;3.15;;;;;;;11.52;nan;101400.28;4989333;28;20060;-51
2023/03/29 11:25:06;;;;;;;6.13;3.30;;;;;;;11.55;nan;101391.34;5000279;28;20570;-50
2023/03/29 11:27:56;;;;;;;6.00;2.92;;;;;;;11.64;nan;101387.38;4985338;28;20088;-53
2023/03/29 11:30:29;;;;;;;5.35;2.58;;;;;;;11.71;nan;101380.88;4987288;28;20030;-50
2023/03/29 11:33:06;;;;;;;5.70;2.60;;;;;;;11.83;nan;101379.38;4991910;28;20114;-50
2023/03/29 11:36:11;;;;;;;9.38;3.45;;;;;;;11.97;nan;101381.28;4983478;28;20026;-53
2023/03/29 11:38:51;;;;;;;6.03;2.70;;;;;;;12.19;nan;101387.13;4989631;28;20087;-50
2023/03/29 11:41:24;;;;;;;9.35;3.20;;;;;;;12.36;nan;101369.50;4985780;28;20114;-52
2023/03/29 11:43:55;;;;;;;7.18;3.17;;;;;;;12.44;nan;101374.38;4990503;28;20038;-50
2023/03/29 11:46:27;;;;;;;6.10;2.67;;;;;;;12.48;nan;101371.47;4987515;28;20030;-50
2023/03/29 11:49:05;;;;;;;7.53;3.33;;;;;;;12.50;nan;101371.41;4997238;28;20038;-50
2023/03/29 11:51:40;;;;;;;5.57;2.60;;;;;;;12.48;nan;101360.91;4987848;28;20041;-49
2023/03/29 11:54:14;;;;;;;8.07;2.72;;;;;;;12.45;nan;101366.38;4992287;28;20544;-49
2023/03/29 11:56:46;;;;;;;4.85;2.78;;;;;;;12.44;nan;101362.03;4962096;28;20724;-49
2023/03/29 11:59:22;;;;;;;7.00;3.73;;;;;;;12.39;nan;101369.34;4980892;28;20066;-51
2023/03/29 12:01:52;;;;;;;8.23;3.08;;;;;;;12.35;nan;101367.81;4984623;28;20331;-50
2023/03/29 12:04:29;;;;;;;5.88;2.67;;;;;;;12.27;nan;101362.13;4985289;28;20038;-47